createdAt,value
2023-04-15T00:00:57.556Z,84.90
2023-04-15T00:03:24.747Z,84.30
2023-04-15T00:05:52.040Z,84.90
2023-04-15T00:08:19.437Z,85.30
2023-04-15T00:10:46.748Z,85.30
2023-04-15T00:13:13.537Z,85.80
2023-04-15T00:15:40.572Z,86.00
2023-04-15T00:18:08.144Z,86.20
2023-04-15T00:20:35.776Z,86.60
2023-04-15T00:23:04.152Z,86.80
2023-04-15T00:25:31.178Z,87.10
2023-04-15T00:27:58.246Z,86.80
2023-04-15T00:30:25.706Z,87.00
2023-04-15T00:32:52.661Z,87.20
2023-04-15T00:35:19.375Z,88.60
2023-04-15T00:37:46.292Z,90.20
2023-04-15T00:40:14.066Z,90.60
2023-04-15T00:42:41.119Z,90.50
2023-04-15T00:45:08.878Z,90.30
2023-04-15T00:47:37.648Z,90.50
2023-04-15T00:50:05.032Z,90.60
2023-04-15T00:52:31.967Z,91.00
2023-04-15T00:54:59.063Z,91.00
2023-04-15T00:57:27.153Z,91.10
2023-04-15T00:59:55.247Z,90.90
2023-04-15T01:02:22.446Z,90.60
2023-04-15T01:04:50.970Z,90.40
2023-04-15T01:07:17.761Z,90.80
2023-04-15T01:09:45.580Z,91.10
2023-04-15T01:12:17.719Z,91.00
2023-04-15T01:14:44.678Z,91.00
2023-04-15T01:17:11.397Z,90.80
2023-04-15T01:19:38.357Z,90.90
2023-04-15T01:22:05.649Z,91.00
2023-04-15T01:24:35.800Z,90.90
2023-04-15T01:27:05.272Z,91.00
2023-04-15T01:29:33.270Z,91.50
2023-04-15T01:32:00.233Z,91.90
2023-04-15T01:34:26.987Z,92.20
2023-04-15T01:36:53.709Z,91.90
2023-04-15T01:39:20.368Z,91.60
2023-04-15T01:41:47.193Z,91.60
2023-04-15T01:44:13.956Z,91.50
2023-04-15T01:46:40.679Z,91.50
2023-04-15T01:49:07.679Z,91.50
2023-04-15T01:51:34.393Z,91.40
2023-04-15T01:54:01.369Z,91.60
2023-04-15T01:56:28.142Z,92.80
2023-04-15T01:58:54.803Z,93.70
2023-04-15T02:01:22.124Z,94.00
2023-04-15T02:03:48.997Z,93.80
2023-04-15T02:06:16.034Z,93.60
2023-04-15T02:08:43.234Z,93.20
2023-04-15T02:11:12.889Z,92.80
2023-04-15T02:13:39.551Z,92.50
2023-04-15T02:16:16.772Z,92.40
2023-04-15T02:18:45.460Z,92.20
2023-04-15T02:21:12.163Z,92.10
2023-04-15T02:23:38.878Z,91.90
2023-04-15T02:26:05.504Z,92.20
2023-04-15T02:28:32.090Z,92.80
2023-04-15T02:30:59.807Z,93.90
2023-04-15T02:33:26.508Z,94.90
2023-04-15T02:35:53.305Z,94.90
2023-04-15T02:38:19.934Z,94.70
2023-04-15T02:40:46.628Z,94.30
2023-04-15T02:43:13.261Z,94.10
2023-04-15T02:45:39.907Z,94.20
2023-04-15T02:48:06.745Z,94.00
2023-04-15T02:50:33.570Z,93.60
2023-04-15T02:53:01.409Z,93.40
2023-04-15T02:55:28.925Z,93.30
2023-04-15T02:57:55.680Z,93.30
2023-04-15T03:00:25.133Z,93.50
2023-04-15T03:02:56.589Z,93.90
2023-04-15T03:05:26.197Z,94.10
2023-04-15T03:07:53.218Z,94.40
2023-04-15T03:10:20.177Z,94.60
2023-04-15T03:12:46.910Z,94.80
2023-04-15T03:15:13.696Z,94.80
2023-04-15T03:17:40.525Z,95.70
2023-04-15T03:20:07.588Z,96.80
2023-04-15T03:22:34.362Z,97.10
2023-04-15T03:25:00.994Z,97.40
2023-04-15T03:27:27.592Z,96.90
2023-04-15T03:29:54.237Z,96.30
2023-04-15T03:32:20.980Z,95.70
2023-04-15T03:34:47.718Z,95.40
2023-04-15T03:37:14.375Z,95.20
2023-04-15T03:39:41.741Z,95.10
2023-04-15T03:42:08.375Z,95.50
2023-04-15T03:44:35.046Z,95.70
2023-04-15T03:47:01.884Z,95.70
2023-04-15T03:49:28.669Z,95.30
2023-04-15T03:51:55.798Z,95.30
2023-04-15T03:54:22.704Z,95.90
2023-04-15T03:56:49.384Z,96.50
2023-04-15T03:59:16.061Z,97.20
2023-04-15T04:01:42.765Z,96.90
2023-04-15T04:04:09.519Z,96.70
2023-04-15T04:06:36.285Z,96.60
2023-04-15T04:09:03.172Z,96.30
2023-04-15T04:11:30.019Z,96.00
2023-04-15T04:13:56.643Z,96.10
2023-04-15T04:16:23.460Z,96.00
2023-04-15T04:18:50.299Z,96.20
2023-04-15T04:21:17.136Z,96.40
2023-04-15T04:23:43.870Z,96.60
2023-04-15T04:26:10.546Z,96.80
2023-04-15T04:28:37.261Z,97.60
2023-04-15T04:31:03.943Z,97.40
2023-04-15T04:33:30.925Z,97.20
2023-04-15T04:35:57.671Z,96.90
2023-04-15T04:38:24.342Z,96.80
2023-04-15T04:40:51.230Z,96.90
2023-04-15T04:43:18.205Z,96.80
2023-04-15T04:45:44.903Z,96.80
2023-04-15T04:48:11.618Z,96.90
2023-04-15T04:50:38.404Z,96.60
2023-04-15T04:53:05.087Z,96.80
2023-04-15T04:55:32.258Z,97.10
2023-04-15T04:57:58.881Z,97.60
2023-04-15T05:00:25.748Z,97.70
2023-04-15T05:02:52.674Z,97.40
2023-04-15T05:05:19.484Z,97.10
2023-04-15T05:07:46.185Z,97.00
2023-04-15T05:10:14.686Z,97.60
2023-04-15T05:12:41.439Z,97.70
2023-04-15T05:15:08.857Z,97.60
2023-04-15T05:17:35.608Z,97.60
2023-04-15T05:20:03.625Z,97.30
2023-04-15T05:22:30.484Z,96.90
2023-04-15T05:24:57.084Z,96.60
2023-04-15T05:27:24.643Z,96.40
2023-04-15T05:29:51.550Z,96.30
2023-04-15T05:32:18.224Z,96.20
2023-04-15T05:34:44.973Z,96.00
2023-04-15T05:37:11.712Z,95.90
2023-04-15T05:39:38.626Z,96.20
2023-04-15T05:42:06.163Z,96.30
2023-04-15T05:44:33.365Z,96.60
2023-04-15T05:47:00.159Z,97.00
2023-04-15T05:49:27.408Z,97.40
2023-04-15T05:51:54.045Z,96.70
2023-04-15T05:54:22.510Z,96.30
2023-04-15T05:56:49.427Z,96.70
2023-04-15T05:59:16.108Z,97.50
2023-04-15T06:01:42.954Z,97.00
2023-04-15T06:04:09.794Z,96.50
2023-04-15T06:06:37.159Z,96.40
2023-04-15T06:09:04.393Z,96.70
2023-04-15T06:11:31.485Z,96.30
2023-04-15T06:13:58.125Z,95.40
2023-04-15T06:16:24.862Z,94.70
2023-04-15T06:18:51.566Z,94.80
2023-04-15T06:21:18.316Z,94.20
2023-04-15T06:23:45.187Z,93.40
2023-04-15T06:26:11.831Z,93.60
2023-04-15T06:28:38.537Z,92.80
2023-04-15T06:31:05.362Z,92.20
2023-04-15T06:33:32.103Z,91.70
2023-04-15T06:35:58.823Z,92.20
2023-04-15T06:38:25.410Z,92.10
2023-04-15T06:40:52.243Z,91.70
2023-04-15T06:43:19.768Z,91.80
2023-04-15T06:45:46.509Z,91.40
2023-04-15T06:48:13.276Z,91.90
2023-04-15T06:50:40.289Z,91.20
2023-04-15T06:53:07.398Z,90.60
2023-04-15T06:55:34.382Z,90.70
2023-04-15T06:58:01.159Z,91.00
2023-04-15T07:00:28.656Z,91.10
2023-04-15T07:02:55.720Z,90.60
2023-04-15T07:05:22.474Z,91.00
2023-04-15T07:07:49.253Z,90.90
2023-04-15T07:10:16.124Z,90.80
2023-04-15T07:12:42.916Z,90.60
2023-04-15T07:15:09.993Z,91.00
2023-04-15T07:17:37.145Z,91.10
2023-04-15T07:20:04.886Z,91.20
2023-04-15T07:22:31.605Z,91.20
2023-04-15T07:24:58.258Z,91.30
2023-04-15T07:27:24.906Z,91.60
2023-04-15T07:29:52.285Z,91.40
2023-04-15T07:32:19.617Z,91.60
2023-04-15T07:34:46.455Z,91.80
2023-04-15T07:37:13.664Z,91.50
2023-04-15T07:39:40.380Z,91.30
2023-04-15T07:42:07.349Z,91.20
2023-04-15T07:44:34.070Z,90.80
2023-04-15T07:47:02.262Z,90.40
2023-04-15T07:49:28.920Z,90.40
2023-04-15T07:51:57.636Z,90.40
2023-04-15T07:54:24.520Z,89.80
2023-04-15T07:56:51.325Z,89.90
2023-04-15T07:59:18.157Z,89.30
2023-04-15T08:01:45.085Z,88.20
2023-04-15T08:04:12.010Z,88.70
2023-04-15T08:06:40.029Z,87.10
2023-04-15T08:09:08.155Z,86.10
2023-04-15T08:11:34.946Z,85.70
2023-04-15T08:14:02.046Z,83.20
2023-04-15T08:16:29.527Z,82.90
2023-04-15T08:18:56.770Z,83.60
2023-04-15T08:21:24.608Z,82.40
2023-04-15T08:23:52.687Z,81.50
2023-04-15T08:26:21.072Z,80.60
2023-04-15T08:28:48.833Z,80.00
2023-04-15T08:31:16.859Z,78.80
2023-04-15T08:33:43.828Z,79.10
2023-04-15T08:36:10.491Z,77.60
2023-04-15T08:38:37.621Z,78.40
2023-04-15T08:41:18.370Z,77.30
2023-04-15T08:43:53.796Z,78.00
2023-04-15T08:46:22.226Z,77.40
2023-04-15T08:48:50.071Z,77.30
2023-04-15T08:51:18.526Z,76.30
2023-04-15T08:53:47.402Z,75.10
2023-04-15T08:56:16.522Z,76.10
2023-04-15T08:58:46.893Z,74.60
2023-04-15T09:01:13.842Z,71.60
2023-04-15T09:03:41.670Z,72.00
2023-04-15T09:06:09.097Z,72.40
2023-04-15T09:08:38.516Z,71.00
2023-04-15T09:11:05.497Z,73.90
2023-04-15T09:13:32.156Z,73.60
2023-04-15T09:15:58.836Z,70.30
2023-04-15T09:18:33.400Z,71.10
2023-04-15T09:21:15.621Z,70.20
2023-04-15T09:23:58.163Z,70.20
2023-04-15T09:26:32.943Z,66.70
2023-04-15T09:29:07.452Z,66.70
2023-04-15T09:31:34.239Z,64.10
2023-04-15T09:34:01.178Z,62.30
2023-04-15T09:36:30.378Z,63.70
2023-04-15T09:38:59.002Z,64.40
2023-04-15T09:41:26.960Z,64.20
2023-04-15T09:43:54.138Z,65.10
2023-04-15T09:46:21.481Z,65.30
2023-04-15T09:49:08.182Z,67.40
2023-04-15T09:51:35.973Z,66.10
2023-04-15T09:54:03.531Z,64.30
2023-04-15T09:56:43.469Z,65.70
2023-04-15T09:59:10.087Z,66.50
2023-04-15T10:01:38.234Z,66.00
2023-04-15T10:04:05.828Z,65.60
2023-04-15T10:06:33.682Z,65.20
2023-04-15T10:09:01.544Z,65.90
2023-04-15T10:11:31.606Z,65.90
2023-04-15T10:13:58.619Z,67.40
2023-04-15T10:16:28.777Z,67.10
2023-04-15T10:18:56.251Z,63.90
2023-04-15T10:21:23.625Z,65.00
2023-04-15T10:23:51.335Z,67.00
2023-04-15T10:26:18.333Z,64.80
2023-04-15T10:28:47.320Z,66.00
2023-04-15T10:31:15.057Z,64.70
2023-04-15T10:33:43.344Z,65.40
2023-04-15T10:36:11.572Z,65.00
2023-04-15T10:38:43.108Z,64.10
2023-04-15T10:41:18.719Z,64.60
2023-04-15T10:43:52.731Z,63.60
2023-04-15T10:46:36.670Z,62.20
2023-04-15T10:49:13.627Z,61.10
2023-04-15T10:51:46.053Z,61.90
2023-04-15T10:54:18.022Z,62.50
2023-04-15T10:56:46.065Z,61.40
2023-04-15T10:59:12.888Z,62.40
2023-04-15T11:01:56.861Z,62.30
2023-04-15T11:04:54.682Z,62.00
2023-04-15T11:07:40.568Z,62.30
2023-04-15T11:10:25.870Z,64.10
2023-04-15T11:12:54.508Z,62.00
2023-04-15T11:15:47.096Z,61.90
2023-04-15T11:18:15.016Z,62.80
2023-04-15T11:20:54.935Z,64.00
2023-04-15T11:23:47.263Z,63.00
2023-04-15T11:26:14.051Z,63.60
2023-04-15T11:28:45.917Z,62.90
2023-04-15T11:31:18.113Z,62.10
2023-04-15T11:33:57.130Z,58.90
2023-04-15T11:36:29.389Z,59.70
2023-04-15T11:38:59.054Z,59.60
2023-04-15T11:41:25.861Z,60.20
2023-04-15T11:43:52.985Z,60.80
2023-04-15T11:46:21.473Z,59.70
2023-04-15T11:48:48.405Z,60.10
2023-04-15T11:51:15.386Z,59.20
2023-04-15T11:53:42.144Z,59.10
2023-04-15T11:56:11.018Z,58.10
2023-04-15T11:58:39.281Z,57.70
2023-04-15T12:01:07.310Z,57.60
2023-04-15T12:03:38.371Z,58.70
2023-04-15T12:06:21.203Z,58.30
2023-04-15T12:08:56.565Z,60.00
2023-04-15T12:11:31.779Z,59.20
2023-04-15T12:14:04.038Z,59.00
2023-04-15T12:16:31.633Z,61.20
2023-04-15T12:19:00.515Z,64.10
2023-04-15T12:21:35.024Z,69.70
2023-04-15T12:24:09.763Z,71.90
2023-04-15T12:26:45.172Z,71.80
2023-04-15T12:29:13.252Z,68.50
2023-04-15T12:31:51.373Z,74.10
2023-04-15T12:34:25.605Z,71.30
2023-04-15T12:36:52.368Z,73.30
2023-04-15T12:39:30.668Z,73.60
2023-04-15T12:41:57.606Z,72.40
2023-04-15T12:44:24.455Z,69.50
2023-04-15T12:46:53.424Z,69.70
2023-04-15T12:49:24.367Z,73.70
2023-04-15T12:51:53.176Z,79.00
2023-04-15T12:54:20.519Z,83.10
2023-04-15T12:56:48.316Z,91.10
2023-04-15T12:59:17.747Z,93.10
2023-04-15T13:01:45.516Z,94.20
2023-04-15T13:04:12.268Z,94.30
2023-04-15T13:06:39.083Z,92.90
2023-04-15T13:09:06.339Z,93.80
2023-04-15T13:11:36.597Z,95.30
2023-04-15T13:14:08.389Z,95.60
2023-04-15T13:16:35.778Z,96.40
2023-04-15T13:19:03.887Z,95.80
2023-04-15T13:21:32.274Z,95.80
2023-04-15T13:23:59.336Z,94.20
2023-04-15T13:26:26.669Z,93.70
2023-04-15T13:28:53.699Z,91.60
2023-04-15T13:31:20.375Z,91.50
2023-04-15T13:33:47.112Z,91.50
2023-04-15T13:36:13.931Z,89.00
2023-04-15T13:38:40.871Z,89.60
2023-04-15T13:41:07.629Z,90.10
2023-04-15T13:43:34.401Z,88.40
2023-04-15T13:46:01.573Z,88.20
2023-04-15T13:48:28.846Z,87.70
2023-04-15T13:50:55.624Z,85.30
2023-04-15T13:53:33.998Z,87.10
2023-04-15T13:56:06.160Z,83.30
2023-04-15T13:58:32.952Z,79.40
2023-04-15T14:00:59.651Z,81.20
2023-04-15T14:03:26.512Z,80.70
2023-04-15T14:05:56.087Z,80.50
2023-04-15T14:08:24.542Z,79.00
2023-04-15T14:10:51.296Z,78.20
2023-04-15T14:13:19.679Z,73.90
2023-04-15T14:15:46.941Z,76.50
2023-04-15T14:18:13.640Z,77.50
2023-04-15T14:20:40.498Z,77.80
2023-04-15T14:23:07.311Z,77.30
2023-04-15T14:25:34.295Z,70.10
2023-04-15T14:28:02.314Z,71.90
2023-04-15T14:30:29.028Z,69.60
2023-04-15T14:32:55.929Z,69.40
2023-04-15T14:35:24.536Z,67.60
2023-04-15T14:37:51.213Z,70.00
2023-04-15T14:40:17.928Z,68.50
2023-04-15T14:42:44.611Z,67.90
2023-04-15T14:45:11.610Z,69.40
2023-04-15T14:47:38.470Z,69.90
2023-04-15T14:50:05.845Z,69.70
2023-04-15T14:52:38.531Z,68.70
2023-04-15T14:55:14.263Z,66.20
2023-04-15T14:57:42.514Z,64.40
2023-04-15T15:00:11.901Z,64.90
2023-04-15T15:02:41.821Z,65.70
2023-04-15T15:05:10.469Z,65.70
2023-04-15T15:07:38.672Z,66.50
2023-04-15T15:10:06.658Z,66.10
2023-04-15T15:12:33.986Z,68.10
2023-04-15T15:15:04.909Z,68.40
2023-04-15T15:17:36.298Z,68.60
2023-04-15T15:20:04.006Z,71.10
2023-04-15T15:22:30.955Z,70.70
2023-04-15T15:24:59.118Z,70.50
2023-04-15T15:27:25.972Z,70.80
2023-04-15T15:29:52.693Z,70.80
2023-04-15T15:32:19.436Z,72.30
2023-04-15T15:34:46.215Z,73.30
2023-04-15T15:37:12.899Z,74.00
2023-04-15T15:39:39.930Z,73.80
2023-04-15T15:42:07.270Z,74.30
2023-04-15T15:44:34.676Z,74.80
2023-04-15T15:47:01.644Z,75.10
2023-04-15T15:49:28.873Z,76.70
2023-04-15T15:51:56.481Z,77.30
2023-04-15T15:54:24.247Z,76.50
2023-04-15T15:56:51.211Z,78.30
2023-04-15T15:59:17.923Z,79.00
2023-04-15T16:01:44.853Z,78.40
2023-04-15T16:04:11.963Z,79.00
2023-04-15T16:06:39.082Z,79.10
2023-04-15T16:09:06.321Z,78.00
2023-04-15T16:11:33.529Z,78.20
2023-04-15T16:14:00.204Z,80.20
2023-04-15T16:16:27.137Z,81.20
2023-04-15T16:18:53.948Z,80.70
2023-04-15T16:21:20.741Z,81.30
2023-04-15T16:23:48.043Z,81.10
2023-04-15T16:26:14.819Z,83.40
2023-04-15T16:28:41.636Z,85.00
2023-04-15T16:31:08.682Z,86.60
2023-04-15T16:33:35.497Z,89.20
2023-04-15T16:36:02.289Z,90.90
2023-04-15T16:38:29.036Z,91.50
2023-04-15T16:40:59.949Z,92.60
2023-04-15T16:43:27.102Z,92.90
2023-04-15T16:45:53.950Z,94.20
2023-04-15T16:48:21.622Z,93.70
2023-04-15T16:51:06.599Z,94.10
2023-04-15T16:53:35.914Z,94.60
2023-04-15T16:56:02.586Z,95.40
2023-04-15T16:58:29.590Z,94.90
2023-04-15T17:00:57.999Z,94.30
2023-04-15T17:03:27.818Z,94.00
2023-04-15T17:05:54.610Z,94.60
2023-04-15T17:08:21.389Z,94.60
2023-04-15T17:10:48.443Z,94.80
2023-04-15T17:13:15.234Z,96.50
2023-04-15T17:15:42.095Z,97.20
2023-04-15T17:18:09.280Z,98.50
2023-04-15T17:20:36.090Z,98.90
2023-04-15T17:23:03.677Z,98.10
2023-04-15T17:25:30.785Z,98.20
2023-04-15T17:27:57.583Z,98.70
2023-04-15T17:30:24.398Z,99.10
2023-04-15T17:32:51.985Z,98.70
2023-04-15T17:35:19.028Z,99.30
2023-04-15T17:37:46.371Z,99.40
2023-04-15T17:40:13.760Z,99.40
2023-04-15T17:42:41.342Z,99.90
2023-04-15T17:45:08.692Z,99.90
2023-04-15T17:47:35.507Z,99.90
2023-04-15T17:50:02.314Z,99.90
2023-04-15T17:52:28.984Z,99.90
2023-04-15T17:54:55.887Z,99.90
2023-04-15T17:57:22.820Z,99.90
2023-04-15T17:59:49.749Z,99.90
2023-04-15T18:02:16.884Z,99.90
2023-04-15T18:04:43.872Z,99.90
2023-04-15T18:07:10.709Z,99.90
2023-04-15T18:09:37.462Z,99.90
2023-04-15T18:12:08.891Z,99.90
2023-04-15T18:14:36.327Z,99.90
2023-04-15T18:17:03.442Z,99.90
2023-04-15T18:19:30.803Z,99.90
2023-04-15T18:21:59.823Z,99.90
2023-04-15T18:24:26.600Z,99.90
2023-04-15T18:26:53.880Z,99.90
2023-04-15T18:29:20.664Z,99.90
2023-04-15T18:31:47.396Z,99.90
2023-04-15T18:34:14.210Z,99.90
2023-04-15T18:36:41.078Z,99.90
2023-04-15T18:39:08.170Z,99.90
2023-04-15T18:41:35.272Z,99.90
2023-04-15T18:44:02.044Z,99.90
2023-04-15T18:46:29.124Z,99.90
2023-04-15T18:48:55.852Z,99.90
2023-04-15T18:51:22.595Z,99.90
2023-04-15T18:53:49.284Z,99.90
2023-04-15T18:56:16.071Z,99.90
2023-04-15T18:59:10.046Z,99.90
2023-04-15T19:03:58.290Z,99.90
2023-04-15T19:06:26.720Z,99.90
2023-04-15T19:08:53.483Z,99.90
2023-04-15T19:11:20.268Z,99.90
2023-04-15T19:13:47.007Z,99.90
2023-04-15T19:16:13.927Z,99.90
2023-04-15T19:18:43.926Z,99.90
2023-04-15T19:21:14.788Z,99.90
2023-04-15T19:23:45.291Z,99.90
2023-04-15T19:26:12.209Z,99.90
2023-04-15T19:28:39.044Z,99.90
2023-04-15T19:31:06.090Z,99.90
2023-04-15T19:33:32.822Z,99.90
2023-04-15T19:36:04.702Z,99.90
2023-04-15T19:38:32.338Z,99.90
2023-04-15T19:41:00.102Z,99.90
2023-04-15T19:43:27.179Z,99.90
2023-04-15T19:45:54.740Z,99.90
2023-04-15T19:48:22.829Z,99.90
2023-04-15T19:50:49.583Z,99.90
2023-04-15T19:53:16.352Z,99.90
2023-04-15T19:55:43.340Z,99.90
2023-04-15T19:58:10.380Z,99.90
2023-04-15T20:00:37.238Z,99.90
2023-04-15T20:03:04.637Z,99.90
2023-04-15T20:05:31.478Z,99.90
2023-04-15T20:08:01.700Z,99.90
2023-04-15T20:10:28.662Z,99.90
2023-04-15T20:12:55.508Z,99.90
2023-04-15T20:15:23.822Z,99.90
2023-04-15T20:17:51.038Z,99.90
2023-04-15T20:20:17.951Z,99.90
2023-04-15T20:22:44.731Z,99.90
2023-04-15T20:25:36.816Z,99.90
2023-04-15T20:28:03.321Z,99.90
2023-04-15T20:30:30.429Z,99.90
2023-04-15T20:32:57.370Z,99.90
2023-04-15T20:35:28.025Z,99.90
2023-04-15T20:37:59.483Z,99.90
2023-04-15T20:40:26.602Z,99.90
2023-04-15T20:43:03.387Z,99.90
2023-04-15T20:45:32.908Z,99.90
2023-04-15T20:47:59.664Z,99.90
2023-04-15T20:50:26.432Z,99.90
2023-04-15T20:52:53.085Z,99.90
2023-04-15T20:55:19.966Z,99.90
2023-04-15T20:57:48.314Z,99.90
2023-04-15T21:00:16.199Z,99.90
2023-04-15T21:02:43.042Z,99.90
2023-04-15T21:05:09.960Z,99.90
2023-04-15T21:07:36.708Z,99.90
2023-04-15T21:10:06.608Z,99.90
2023-04-15T21:12:33.479Z,99.90
2023-04-15T21:15:00.220Z,99.90
2023-04-15T21:17:26.933Z,99.90
2023-04-15T21:19:53.693Z,99.90
2023-04-15T21:22:20.465Z,99.90
2023-04-15T21:24:47.151Z,99.90
2023-04-15T21:27:13.825Z,99.90
2023-04-15T21:29:40.888Z,99.90
2023-04-15T21:32:07.683Z,99.90
2023-04-15T21:34:34.579Z,99.90
2023-04-15T21:37:01.540Z,99.90
2023-04-15T21:39:28.400Z,99.90
2023-04-15T21:41:56.628Z,99.90
2023-04-15T21:44:23.815Z,99.90
2023-04-15T21:46:51.303Z,99.90
2023-04-15T21:49:18.114Z,99.90
2023-04-15T21:51:47.156Z,99.90
2023-04-15T21:54:14.013Z,99.90
2023-04-15T21:56:40.688Z,99.90
2023-04-15T21:59:07.485Z,99.90
2023-04-15T22:01:34.346Z,99.90
2023-04-15T22:04:01.257Z,99.90
2023-04-15T22:06:28.807Z,99.90
2023-04-15T22:08:57.776Z,99.90
2023-04-15T22:11:28.365Z,99.90
2023-04-15T22:13:57.303Z,99.90
2023-04-15T22:16:25.510Z,99.90
2023-04-15T22:18:52.320Z,99.90
2023-04-15T22:21:19.177Z,99.90
2023-04-15T22:23:47.385Z,99.90
2023-04-15T22:26:14.112Z,99.90
2023-04-15T22:28:40.922Z,99.90
2023-04-15T22:31:07.719Z,99.90
2023-04-15T22:33:34.586Z,99.90
2023-04-15T22:36:01.350Z,99.90
2023-04-15T22:38:28.041Z,99.90
2023-04-15T22:40:57.578Z,99.90
2023-04-15T22:43:24.332Z,99.90
2023-04-15T22:45:51.358Z,99.90
2023-04-15T22:48:18.804Z,99.90
2023-04-15T22:50:45.651Z,99.90
2023-04-15T22:53:12.509Z,99.90
2023-04-15T22:55:39.278Z,99.90
2023-04-15T22:58:06.211Z,99.90
2023-04-15T23:00:32.970Z,99.90
2023-04-15T23:02:59.829Z,99.90
2023-04-15T23:05:27.569Z,99.90
2023-04-15T23:07:54.566Z,99.90
2023-04-15T23:10:21.320Z,99.90
2023-04-15T23:12:48.067Z,99.90
2023-04-15T23:15:14.688Z,99.90
2023-04-15T23:17:42.701Z,99.90
2023-04-15T23:20:09.961Z,99.90
2023-04-15T23:22:37.730Z,99.90
2023-04-15T23:25:07.665Z,99.90
2023-04-15T23:27:34.953Z,99.90
2023-04-15T23:30:02.033Z,99.90
2023-04-15T23:32:31.504Z,99.90
2023-04-15T23:34:58.336Z,99.90
2023-04-15T23:37:24.974Z,99.90
2023-04-15T23:39:51.802Z,99.90
2023-04-15T23:42:18.472Z,99.90
2023-04-15T23:44:45.345Z,99.90
2023-04-15T23:47:12.049Z,99.90
2023-04-15T23:49:40.918Z,99.90
2023-04-15T23:52:07.969Z,99.90
2023-04-15T23:54:34.719Z,99.90
2023-04-15T23:57:01.697Z,99.90
2023-04-15T23:59:28.485Z,99.90
